createdAt,value
2022-10-07T00:00:19.154Z,102293.00
2022-10-07T00:02:51.883Z,102297.00
2022-10-07T00:05:22.093Z,102297.00
2022-10-07T00:07:52.312Z,102292.00
2022-10-07T00:10:22.482Z,102291.00
2022-10-07T00:12:52.646Z,102299.00
2022-10-07T00:15:23.841Z,102301.00
2022-10-07T00:17:56.695Z,102295.00
2022-10-07T00:20:27.009Z,102302.00
2022-10-07T00:22:57.180Z,102300.00
2022-10-07T00:25:27.544Z,102291.00
2022-10-07T00:27:57.798Z,102286.00
2022-10-07T00:30:28.256Z,102288.00
2022-10-07T00:33:01.469Z,102282.00
2022-10-07T00:35:31.645Z,102279.00
2022-10-07T00:38:01.827Z,102293.00
2022-10-07T00:40:32.285Z,102279.00
2022-10-07T00:43:02.486Z,102271.00
2022-10-07T00:45:32.720Z,102272.00
2022-10-07T00:48:05.475Z,102268.00
2022-10-07T00:50:36.001Z,102264.00
2022-10-07T00:53:06.975Z,102260.00
2022-10-07T00:55:37.419Z,102260.00
2022-10-07T00:58:09.859Z,102257.00
2022-10-07T01:00:40.756Z,102252.00
2022-10-07T01:03:13.650Z,102266.00
2022-10-07T01:05:43.924Z,102260.00
2022-10-07T01:08:15.826Z,102252.00
2022-10-07T01:10:55.767Z,102249.00
2022-10-07T01:13:34.743Z,102241.00
2022-10-07T01:16:16.082Z,102240.00
2022-10-07T01:18:55.549Z,102243.00
2022-10-07T01:21:39.751Z,102248.00
2022-10-07T01:24:24.281Z,102244.00
2022-10-07T01:27:04.968Z,102233.00
2022-10-07T01:29:41.305Z,102229.00
2022-10-07T01:32:19.683Z,102225.00
2022-10-07T01:34:51.723Z,102226.00
2022-10-07T01:37:24.197Z,102221.00
2022-10-07T01:39:59.016Z,102219.00
2022-10-07T01:42:32.361Z,102213.00
2022-10-07T01:45:03.704Z,102222.00
2022-10-07T01:47:33.897Z,102213.00
2022-10-07T01:50:04.073Z,102207.00
2022-10-07T01:53:03.240Z,102198.00
2022-10-07T01:56:10.664Z,102205.00
2022-10-07T01:59:20.851Z,102205.00
2022-10-07T02:01:57.655Z,102194.00
2022-10-07T02:04:46.325Z,102198.00
2022-10-07T02:07:36.330Z,102196.00
2022-10-07T02:10:17.507Z,102193.00
2022-10-07T02:12:54.652Z,102181.00
2022-10-07T02:15:31.985Z,102188.00
2022-10-07T02:18:06.613Z,102179.00
2022-10-07T02:20:41.766Z,102177.00
2022-10-07T02:23:14.983Z,102188.00
2022-10-07T02:25:51.117Z,102172.00
2022-10-07T02:28:26.857Z,102188.00
2022-10-07T02:31:05.129Z,102178.00
2022-10-07T02:33:37.127Z,102187.00
2022-10-07T02:36:12.145Z,102183.00
2022-10-07T02:38:42.794Z,102177.00
2022-10-07T02:41:33.601Z,102169.00
2022-10-07T02:44:14.704Z,102174.00
2022-10-07T02:46:56.016Z,102176.00
2022-10-07T02:49:29.369Z,102164.00
2022-10-07T02:52:05.530Z,102168.00
2022-10-07T02:54:42.889Z,102161.00
2022-10-07T02:57:16.689Z,102163.00
2022-10-07T02:59:49.024Z,102152.00
2022-10-07T03:02:29.373Z,102162.00
2022-10-07T03:05:00.569Z,102158.00
2022-10-07T03:07:31.235Z,102157.00
2022-10-07T03:10:01.952Z,102157.00
2022-10-07T03:12:32.113Z,102163.00
2022-10-07T03:15:02.271Z,102156.00
2022-10-07T03:17:35.131Z,102148.00
2022-10-07T03:20:05.318Z,102150.00
2022-10-07T03:22:35.565Z,102153.00
2022-10-07T03:25:06.153Z,102148.00
2022-10-07T03:27:36.313Z,102147.00
2022-10-07T03:30:07.531Z,102141.00
2022-10-07T03:32:41.968Z,102136.00
2022-10-07T03:35:12.489Z,102141.00
2022-10-07T03:37:42.999Z,102132.00
2022-10-07T03:40:14.051Z,102128.00
2022-10-07T03:42:44.215Z,102130.00
2022-10-07T03:45:14.486Z,102129.00
2022-10-07T03:47:47.427Z,102115.00
2022-10-07T03:50:18.098Z,102125.00
2022-10-07T03:52:48.259Z,102109.00
2022-10-07T03:55:19.112Z,102105.00
2022-10-07T03:57:59.739Z,102111.00
2022-10-07T04:00:30.732Z,102111.00
2022-10-07T04:03:03.525Z,102107.00
2022-10-07T04:05:34.092Z,102105.00
2022-10-07T04:08:04.999Z,102114.00
2022-10-07T04:10:37.279Z,102099.00
2022-10-07T04:13:07.295Z,102095.00
2022-10-07T04:15:38.992Z,102106.00
2022-10-07T04:18:13.758Z,102095.00
2022-10-07T04:20:44.249Z,102092.00
2022-10-07T04:23:14.589Z,102100.00
2022-10-07T04:25:47.838Z,102090.00
2022-10-07T04:28:21.664Z,102093.00
2022-10-07T04:30:54.005Z,102089.00
2022-10-07T04:33:29.394Z,102072.00
2022-10-07T04:35:59.743Z,102085.00
2022-10-07T04:38:32.713Z,102082.00
2022-10-07T04:41:07.585Z,102073.00
2022-10-07T04:43:35.166Z,102074.00
2022-10-07T04:46:08.863Z,102082.00
2022-10-07T04:48:42.144Z,102078.00
2022-10-07T04:51:13.139Z,102074.00
2022-10-07T04:53:43.536Z,102070.00
2022-10-07T04:56:13.664Z,102075.00
2022-10-07T04:58:43.812Z,102071.00
2022-10-07T05:01:14.954Z,102061.00
2022-10-07T05:03:47.888Z,102063.00
2022-10-07T05:06:18.631Z,102060.00
2022-10-07T05:08:50.068Z,102059.00
2022-10-07T05:11:20.298Z,102049.00
2022-10-07T05:13:50.601Z,102050.00
2022-10-07T05:16:20.921Z,102051.00
2022-10-07T05:18:53.803Z,102043.00
2022-10-07T05:21:23.992Z,102052.00
2022-10-07T05:23:54.406Z,102045.00
2022-10-07T05:26:24.688Z,102044.00
2022-10-07T05:28:55.027Z,102043.00
2022-10-07T05:31:26.081Z,102042.00
2022-10-07T05:33:59.368Z,102042.00
2022-10-07T05:36:29.803Z,102042.00
2022-10-07T05:39:00.460Z,102032.00
2022-10-07T05:41:30.869Z,102038.00
2022-10-07T05:44:01.340Z,102034.00
2022-10-07T05:46:31.809Z,102035.00
2022-10-07T05:49:04.740Z,102035.00
2022-10-07T05:51:34.969Z,102044.00
2022-10-07T05:54:05.441Z,102037.00
2022-10-07T05:56:36.974Z,102038.00
2022-10-07T05:59:07.587Z,102035.00
2022-10-07T06:01:37.889Z,102033.00
2022-10-07T06:04:10.793Z,102038.00
2022-10-07T06:06:41.517Z,102037.00
2022-10-07T06:09:24.093Z,102033.00
2022-10-07T06:12:06.760Z,102034.00
2022-10-07T06:14:36.990Z,102031.00
2022-10-07T06:17:07.234Z,102026.00
2022-10-07T06:19:40.000Z,102030.00
2022-10-07T06:22:11.333Z,102034.00
2022-10-07T06:24:41.441Z,102033.00
2022-10-07T06:27:11.578Z,102019.00
2022-10-07T06:29:42.531Z,102021.00
2022-10-07T06:32:12.849Z,102019.00
2022-10-07T06:34:45.666Z,102011.00
2022-10-07T06:37:16.148Z,102021.00
2022-10-07T06:39:46.343Z,102014.00
2022-10-07T06:42:16.734Z,102020.00
2022-10-07T06:44:46.870Z,102014.00
2022-10-07T06:47:17.120Z,102014.00
2022-10-07T06:49:49.887Z,102013.00
2022-10-07T06:52:19.981Z,102018.00
2022-10-07T06:54:50.108Z,102016.00
2022-10-07T06:57:44.247Z,102013.00
2022-10-07T07:00:12.624Z,102013.00
2022-10-07T07:02:43.024Z,102015.00
2022-10-07T07:05:17.815Z,102020.00
2022-10-07T07:07:48.457Z,102013.00
2022-10-07T07:10:19.059Z,102016.00
2022-10-07T07:12:49.769Z,102017.00
2022-10-07T07:15:20.408Z,102026.00
2022-10-07T07:17:50.885Z,102023.00
2022-10-07T07:20:23.696Z,102018.00
2022-10-07T07:22:53.863Z,102021.00
2022-10-07T07:25:23.985Z,102021.00
2022-10-07T07:27:57.883Z,102021.00
2022-10-07T07:30:28.533Z,102022.00
2022-10-07T07:32:58.665Z,102022.00
2022-10-07T07:35:33.983Z,102011.00
2022-10-07T07:38:04.829Z,102008.00
2022-10-07T07:40:35.140Z,102011.00
2022-10-07T07:43:05.305Z,102007.00
2022-10-07T07:45:36.892Z,102008.00
2022-10-07T07:48:07.474Z,102011.00
2022-10-07T07:50:43.370Z,102009.00
2022-10-07T07:53:13.451Z,102010.00
2022-10-07T07:55:43.756Z,102011.00
2022-10-07T07:58:13.977Z,102016.00
2022-10-07T08:00:44.166Z,102006.00
2022-10-07T08:03:14.475Z,102001.00
2022-10-07T08:05:47.967Z,102004.00
2022-10-07T08:08:18.187Z,102007.00
2022-10-07T08:10:51.811Z,102005.00
2022-10-07T08:13:22.222Z,102005.00
2022-10-07T08:15:52.374Z,102000.00
2022-10-07T08:18:22.584Z,101994.00
2022-10-07T08:21:03.120Z,101992.00
2022-10-07T08:23:34.181Z,101994.00
2022-10-07T08:26:06.053Z,101991.00
2022-10-07T08:28:39.350Z,101988.00
2022-10-07T08:31:14.479Z,101982.00
2022-10-07T08:33:47.761Z,101982.00
2022-10-07T08:36:23.290Z,101986.00
2022-10-07T08:38:54.045Z,101975.00
2022-10-07T08:41:48.789Z,101968.00
2022-10-07T08:44:26.300Z,101968.00
2022-10-07T08:47:06.429Z,101960.00
2022-10-07T08:49:46.941Z,101963.00
2022-10-07T08:52:33.254Z,101967.00
2022-10-07T08:55:04.392Z,101955.00
2022-10-07T08:58:04.488Z,101944.00
2022-10-07T09:00:43.914Z,101942.00
2022-10-07T09:03:27.909Z,101935.00
2022-10-07T09:05:59.675Z,101941.00
2022-10-07T09:08:40.443Z,101935.00
2022-10-07T09:11:20.304Z,101933.00
2022-10-07T09:13:57.109Z,101924.00
2022-10-07T09:16:32.475Z,101931.00
2022-10-07T09:19:05.051Z,101917.00
2022-10-07T09:21:42.724Z,101913.00
2022-10-07T09:24:24.680Z,101918.00
2022-10-07T09:26:58.123Z,101908.00
2022-10-07T09:29:32.482Z,101912.00
2022-10-07T09:32:02.747Z,101907.00
2022-10-07T09:34:34.538Z,101913.00
2022-10-07T09:37:22.089Z,101902.00
2022-10-07T09:39:57.855Z,101907.00
2022-10-07T09:42:39.356Z,101902.00
2022-10-07T09:45:24.654Z,101887.00
2022-10-07T09:47:57.213Z,101888.00
2022-10-07T09:50:37.219Z,101895.00
2022-10-07T09:53:09.208Z,101889.00
2022-10-07T09:55:46.157Z,101883.00
2022-10-07T09:58:27.906Z,101876.00
2022-10-07T10:01:01.058Z,101882.00
2022-10-07T10:03:33.931Z,101877.00
2022-10-07T10:06:06.760Z,101873.00
2022-10-07T10:08:40.050Z,101869.00
2022-10-07T10:11:28.777Z,101870.00
2022-10-07T10:13:59.716Z,101875.00
2022-10-07T10:16:40.610Z,101865.00
2022-10-07T10:19:27.142Z,101862.00
2022-10-07T10:21:59.247Z,101865.00
2022-10-07T10:24:48.804Z,101861.00
2022-10-07T10:27:30.225Z,101853.00
2022-10-07T10:30:09.089Z,101845.00
2022-10-07T10:33:15.067Z,101841.00
2022-10-07T10:35:57.547Z,101837.00
2022-10-07T10:38:46.644Z,101838.00
2022-10-07T10:41:31.728Z,101829.00
2022-10-07T10:44:39.485Z,101833.00
2022-10-07T10:47:20.619Z,101817.00
2022-10-07T10:50:04.430Z,101810.00
2022-10-07T10:52:49.684Z,101808.00
2022-10-07T10:55:42.307Z,101808.00
2022-10-07T10:58:28.567Z,101800.00
2022-10-07T11:01:11.483Z,101793.00
2022-10-07T11:04:19.551Z,101782.00
2022-10-07T11:06:56.393Z,101781.00
2022-10-07T11:09:41.610Z,101772.00
2022-10-07T11:12:25.363Z,101763.00
2022-10-07T11:15:02.160Z,101761.00
2022-10-07T11:17:40.053Z,101754.00
2022-10-07T11:20:22.013Z,101748.00
2022-10-07T11:22:58.007Z,101742.00
2022-10-07T11:25:36.483Z,101737.00
2022-10-07T11:28:27.363Z,101730.00
2022-10-07T11:31:04.960Z,101735.00
2022-10-07T11:33:47.271Z,101732.00
2022-10-07T11:36:22.866Z,101728.00
2022-10-07T11:38:55.864Z,101724.00
2022-10-07T11:41:32.960Z,101724.00
2022-10-07T11:44:10.174Z,101715.00
2022-10-07T11:46:45.057Z,101716.00
2022-10-07T11:49:23.750Z,101700.00
2022-10-07T11:52:00.763Z,101699.00
2022-10-07T11:54:36.209Z,101699.00
2022-10-07T11:57:07.414Z,101691.00
2022-10-07T11:59:48.220Z,101683.00
2022-10-07T12:02:48.959Z,101679.00
2022-10-07T12:05:58.746Z,101672.00
2022-10-07T12:08:36.850Z,101664.00
2022-10-07T12:11:49.475Z,101665.00
2022-10-07T12:14:37.647Z,101667.00
2022-10-07T12:17:28.404Z,101652.00
2022-10-07T12:20:39.341Z,101645.00
2022-10-07T12:23:54.186Z,101645.00
2022-10-07T12:26:52.222Z,101640.00
2022-10-07T12:29:48.387Z,101634.00
2022-10-07T12:33:01.306Z,101630.00
2022-10-07T12:35:54.598Z,101632.00
2022-10-07T12:38:31.547Z,101625.00
2022-10-07T12:41:23.280Z,101621.00
2022-10-07T12:44:04.739Z,101619.00
2022-10-07T12:46:41.868Z,101616.00
2022-10-07T12:49:22.205Z,101616.00
2022-10-07T12:51:55.749Z,101607.00
2022-10-07T12:54:32.360Z,101606.00
2022-10-07T12:57:14.243Z,101599.00
2022-10-07T13:00:02.083Z,101600.00
2022-10-07T13:03:11.634Z,101587.00
2022-10-07T13:06:34.393Z,101589.00
2022-10-07T13:09:33.594Z,101576.00
2022-10-07T13:12:23.551Z,101581.00
2022-10-07T13:15:18.924Z,101570.00
2022-10-07T13:17:56.613Z,101572.00
2022-10-07T13:20:46.422Z,101571.00
2022-10-07T13:23:24.734Z,101566.00
2022-10-07T13:26:00.522Z,101559.00
2022-10-07T13:28:41.834Z,101554.00
2022-10-07T13:31:22.756Z,101559.00
2022-10-07T13:33:54.234Z,101550.00
2022-10-07T13:36:27.807Z,101557.00
2022-10-07T13:39:14.771Z,101548.00
2022-10-07T13:41:48.427Z,101535.00
2022-10-07T13:44:24.318Z,101535.00
2022-10-07T13:47:00.323Z,101539.00
2022-10-07T13:49:35.819Z,101528.00
2022-10-07T13:52:10.381Z,101529.00
2022-10-07T13:54:40.578Z,101525.00
2022-10-07T13:57:14.196Z,101524.00
2022-10-07T13:59:48.897Z,101514.00
2022-10-07T14:02:20.780Z,101507.00
2022-10-07T14:05:04.332Z,101505.00
2022-10-07T14:07:34.737Z,101510.00
2022-10-07T14:10:10.122Z,101505.00
2022-10-07T14:12:44.206Z,101501.00
2022-10-07T14:15:21.912Z,101498.00
2022-10-07T14:17:54.843Z,101493.00
2022-10-07T14:20:30.922Z,101496.00
2022-10-07T14:23:03.819Z,101493.00
2022-10-07T14:25:40.142Z,101481.00
2022-10-07T14:28:21.568Z,101477.00
2022-10-07T14:31:32.729Z,101474.00
2022-10-07T14:34:27.174Z,101471.00
2022-10-07T14:37:05.477Z,101474.00
2022-10-07T14:39:39.027Z,101475.00
2022-10-07T14:42:14.506Z,101466.00
2022-10-07T14:44:45.648Z,101462.00
2022-10-07T14:47:21.913Z,101455.00
2022-10-07T14:49:52.975Z,101448.00
2022-10-07T14:52:28.617Z,101447.00
2022-10-07T14:55:00.716Z,101438.00
2022-10-07T14:57:31.280Z,101433.00
2022-10-07T15:00:01.514Z,101444.00
2022-10-07T15:02:34.442Z,101431.00
2022-10-07T15:05:04.955Z,101432.00
2022-10-07T15:07:35.270Z,101426.00
2022-10-07T15:10:05.688Z,101422.00
2022-10-07T15:12:36.094Z,101415.00
2022-10-07T15:15:07.357Z,101415.00
2022-10-07T15:17:40.384Z,101411.00
2022-10-07T15:20:14.050Z,101416.00
2022-10-07T15:22:45.475Z,101413.00
2022-10-07T15:25:18.223Z,101407.00
2022-10-07T15:27:48.578Z,101406.00
2022-10-07T15:30:19.085Z,101407.00
2022-10-07T15:32:53.568Z,101410.00
2022-10-07T15:35:24.023Z,101405.00
2022-10-07T15:37:54.610Z,101401.00
2022-10-07T15:40:24.977Z,101395.00
2022-10-07T15:42:55.292Z,101402.00
2022-10-07T15:45:25.698Z,101389.00
2022-10-07T15:48:00.647Z,101378.00
2022-10-07T15:50:32.333Z,101393.00
2022-10-07T15:53:02.858Z,101389.00
2022-10-07T15:55:33.767Z,101388.00
2022-10-07T15:58:04.445Z,101388.00
2022-10-07T16:00:34.628Z,101394.00
2022-10-07T16:03:07.510Z,101380.00
2022-10-07T16:05:38.098Z,101387.00
2022-10-07T16:08:09.991Z,101392.00
2022-10-07T16:10:40.573Z,101391.00
2022-10-07T16:13:10.717Z,101382.00
2022-10-07T16:15:42.584Z,101388.00
2022-10-07T16:18:15.491Z,101393.00
2022-10-07T16:20:46.245Z,101387.00
2022-10-07T16:23:16.445Z,101386.00
2022-10-07T16:25:47.037Z,101388.00
2022-10-07T16:28:29.791Z,101387.00
2022-10-07T16:31:00.143Z,101377.00
2022-10-07T16:33:32.920Z,101380.00
2022-10-07T16:36:03.174Z,101372.00
2022-10-07T16:38:35.154Z,101373.00
2022-10-07T16:41:05.337Z,101372.00
2022-10-07T16:43:36.278Z,101373.00
2022-10-07T16:46:07.920Z,101366.00
2022-10-07T16:48:45.933Z,101363.00
2022-10-07T16:51:19.682Z,101362.00
2022-10-07T16:53:51.806Z,101359.00
2022-10-07T16:56:22.943Z,101362.00
2022-10-07T16:58:58.593Z,101368.00
2022-10-07T17:01:30.399Z,101374.00
2022-10-07T17:04:06.472Z,101370.00
2022-10-07T17:06:37.880Z,101366.00
2022-10-07T17:09:08.481Z,101364.00
2022-10-07T17:11:41.365Z,101369.00
2022-10-07T17:14:15.706Z,101370.00
2022-10-07T17:16:48.361Z,101371.00
2022-10-07T17:19:23.211Z,101368.00
2022-10-07T17:21:55.825Z,101374.00
2022-10-07T17:24:27.230Z,101369.00
2022-10-07T17:26:57.998Z,101362.00
2022-10-07T17:29:30.895Z,101361.00
2022-10-07T17:32:01.055Z,101360.00
2022-10-07T17:34:34.441Z,101362.00
2022-10-07T17:37:04.914Z,101357.00
2022-10-07T17:39:35.041Z,101348.00
2022-10-07T17:42:05.372Z,101356.00
2022-10-07T17:44:35.809Z,101348.00
2022-10-07T17:47:06.413Z,101359.00
2022-10-07T17:49:39.700Z,101343.00
2022-10-07T17:52:10.375Z,101337.00
2022-10-07T17:54:40.697Z,101341.00
2022-10-07T17:57:10.984Z,101336.00
2022-10-07T17:59:41.309Z,101342.00
2022-10-07T18:02:12.808Z,101341.00
2022-10-07T18:04:46.494Z,101335.00
2022-10-07T18:07:17.872Z,101331.00
2022-10-07T18:09:48.186Z,101326.00
2022-10-07T18:12:31.069Z,101321.00
2022-10-07T18:15:13.728Z,101320.00
2022-10-07T18:17:44.517Z,101316.00
2022-10-07T18:20:17.839Z,101314.00
2022-10-07T18:22:48.068Z,101312.00
2022-10-07T18:25:18.720Z,101306.00
2022-10-07T18:27:49.124Z,101307.00
2022-10-07T18:30:20.069Z,101305.00
2022-10-07T18:32:50.215Z,101306.00
2022-10-07T18:35:23.022Z,101306.00
2022-10-07T18:37:54.730Z,101292.00
2022-10-07T18:40:25.037Z,101291.00
2022-10-07T18:42:55.126Z,101293.00
2022-10-07T18:45:25.502Z,101288.00
2022-10-07T18:47:55.705Z,101289.00
2022-10-07T18:50:33.351Z,101288.00
2022-10-07T18:53:03.717Z,101289.00
2022-10-07T18:55:33.901Z,101283.00
2022-10-07T18:58:04.068Z,101278.00
2022-10-07T19:00:34.279Z,101273.00
2022-10-07T19:03:04.463Z,101277.00
2022-10-07T19:05:39.343Z,101266.00
2022-10-07T19:08:10.151Z,101268.00
2022-10-07T19:10:42.182Z,101272.00
2022-10-07T19:13:27.002Z,101258.00
2022-10-07T19:15:57.290Z,101264.00
2022-10-07T19:18:28.042Z,101256.00
2022-10-07T19:21:03.691Z,101258.00
2022-10-07T19:23:33.902Z,101258.00
2022-10-07T19:26:04.478Z,101257.00
2022-10-07T19:28:34.647Z,101259.00
2022-10-07T19:31:16.670Z,101262.00
2022-10-07T19:33:47.382Z,101262.00
2022-10-07T19:36:23.337Z,101253.00
2022-10-07T19:38:55.101Z,101241.00
2022-10-07T19:41:27.839Z,101242.00
2022-10-07T19:43:59.057Z,101232.00
2022-10-07T19:46:32.582Z,101248.00
2022-10-07T19:49:05.233Z,101246.00
2022-10-07T19:51:39.032Z,101242.00
2022-10-07T19:54:10.912Z,101229.00
2022-10-07T19:56:42.673Z,101236.00
2022-10-07T19:59:15.600Z,101223.00
2022-10-07T20:01:49.842Z,101217.00
2022-10-07T20:04:23.328Z,101228.00
2022-10-07T20:06:56.593Z,101226.00
2022-10-07T20:09:26.876Z,101230.00
2022-10-07T20:11:57.004Z,101226.00
2022-10-07T20:14:27.156Z,101225.00
2022-10-07T20:16:58.062Z,101222.00
2022-10-07T20:19:28.232Z,101230.00
2022-10-07T20:22:02.057Z,101218.00
2022-10-07T20:24:32.217Z,101212.00
2022-10-07T20:27:02.661Z,101204.00
2022-10-07T20:29:32.954Z,101209.00
2022-10-07T20:32:03.302Z,101205.00
2022-10-07T20:34:33.471Z,101205.00
2022-10-07T20:37:06.263Z,101200.00
2022-10-07T20:39:48.855Z,101197.00
2022-10-07T20:42:25.925Z,101191.00
2022-10-07T20:44:57.717Z,101192.00
2022-10-07T20:47:30.723Z,101199.00
2022-10-07T20:50:02.764Z,101194.00
2022-10-07T20:52:38.781Z,101184.00
2022-10-07T20:55:11.714Z,101186.00
2022-10-07T20:57:41.961Z,101182.00
2022-10-07T21:00:16.586Z,101187.00
2022-10-07T21:02:47.212Z,101176.00
2022-10-07T21:05:17.815Z,101174.00
2022-10-07T21:07:54.487Z,101175.00
2022-10-07T21:10:25.025Z,101174.00
2022-10-07T21:12:55.164Z,101176.00
2022-10-07T21:15:25.814Z,101178.00
2022-10-07T21:17:55.968Z,101182.00
2022-10-07T21:20:26.159Z,101170.00
2022-10-07T21:22:58.928Z,101174.00
2022-10-07T21:25:29.499Z,101181.00
2022-10-07T21:27:59.706Z,101177.00
2022-10-07T21:30:31.000Z,101175.00
2022-10-07T21:33:01.348Z,101160.00
2022-10-07T21:35:31.634Z,101160.00
2022-10-07T21:38:04.275Z,101160.00
2022-10-07T21:40:34.429Z,101153.00
2022-10-07T21:43:04.629Z,101149.00
2022-10-07T21:45:34.859Z,101149.00
2022-10-07T21:48:05.041Z,101148.00
2022-10-07T21:50:35.373Z,101148.00
2022-10-07T21:53:08.144Z,101146.00
2022-10-07T21:55:39.766Z,101137.00
2022-10-07T21:58:12.029Z,101139.00
2022-10-07T22:00:43.150Z,101130.00
2022-10-07T22:03:13.720Z,101138.00
2022-10-07T22:05:44.174Z,101129.00
2022-10-07T22:08:34.284Z,101127.00
2022-10-07T22:11:05.284Z,101122.00
2022-10-07T22:13:37.739Z,101120.00
2022-10-07T22:16:14.648Z,101113.00
2022-10-07T22:18:49.118Z,101115.00
2022-10-07T22:21:22.393Z,101111.00
2022-10-07T22:23:57.061Z,101104.00
2022-10-07T22:26:28.363Z,101095.00
2022-10-07T22:28:59.081Z,101084.00
2022-10-07T22:31:30.379Z,101081.00
2022-10-07T22:34:02.752Z,101083.00
2022-10-07T22:36:30.679Z,101080.00
2022-10-07T22:39:03.584Z,101081.00
2022-10-07T22:41:34.028Z,101068.00
2022-10-07T22:44:04.281Z,101075.00
2022-10-07T22:46:34.438Z,101069.00
2022-10-07T22:49:04.576Z,101067.00
2022-10-07T22:51:34.760Z,101059.00
2022-10-07T22:54:09.015Z,101063.00
2022-10-07T22:56:39.182Z,101060.00
2022-10-07T22:59:11.095Z,101057.00
2022-10-07T23:01:41.362Z,101055.00
2022-10-07T23:04:11.608Z,101053.00
2022-10-07T23:06:41.680Z,101050.00
2022-10-07T23:09:14.355Z,101048.00
2022-10-07T23:11:44.821Z,101045.00
2022-10-07T23:14:15.058Z,101042.00
2022-10-07T23:16:45.297Z,101049.00
2022-10-07T23:19:15.946Z,101041.00
2022-10-07T23:21:46.344Z,101038.00
2022-10-07T23:24:19.136Z,101030.00
2022-10-07T23:26:49.439Z,101028.00
2022-10-07T23:29:20.730Z,101024.00
2022-10-07T23:31:51.233Z,101018.00
2022-10-07T23:34:21.456Z,101021.00
2022-10-07T23:36:55.404Z,101017.00
2022-10-07T23:39:28.146Z,101006.00
2022-10-07T23:41:58.316Z,101009.00
2022-10-07T23:44:28.498Z,101009.00
2022-10-07T23:46:58.678Z,101001.00
2022-10-07T23:49:28.852Z,101000.00
2022-10-07T23:51:59.056Z,101010.00
2022-10-07T23:54:31.868Z,101005.00
2022-10-07T23:57:01.927Z,100995.00
2022-10-07T23:59:32.115Z,100995.00
